Time;durP1;ratioP1;P1;durP2;ratioP2;P2;SDS_P1;SDS_P2;PMS_P1;PMS_P2;Temp;Humidity;BMP_temperature;BMP_pressure;BME280_temperature;BME280_humidity;BME280_pressure;Samples;Min_cycle;Max_cycle;Signal;HPM_P1;HPM_P2
2022/12/06 00:03:01;;;;;;;7.20;6.60;;;;;;;21.29;37.45;95631.97;6212964;28;103302;-63
2022/12/06 00:06:08;;;;;;;6.87;6.27;;;;;;;21.29;37.69;95634.63;6211306;28;107253;-64
2022/12/06 00:09:17;;;;;;;6.83;6.23;;;;;;;21.28;37.51;95626.94;6197201;28;103073;-68
2022/12/06 00:12:21;;;;;;;7.40;6.80;;;;;;;21.25;37.78;95620.31;6205988;28;104079;-63
2022/12/06 00:15:24;;;;;;;8.13;7.43;;;;;;;21.26;37.60;95613.91;6209045;28;103880;-62
2022/12/06 00:18:27;;;;;;;6.90;6.40;;;;;;;21.27;37.72;95612.84;6196637;28;103191;-63
2022/12/06 00:21:32;;;;;;;8.50;7.80;;;;;;;21.26;37.48;95613.13;6199621;28;104101;-66
2022/12/06 00:24:35;;;;;;;8.00;7.40;;;;;;;21.25;37.58;95611.53;6211682;28;103207;-63
2022/12/06 00:27:38;;;;;;;8.10;7.40;;;;;;;21.26;37.56;95619.25;6204998;28;103221;-63
2022/12/06 00:30:41;;;;;;;8.30;7.60;;;;;;;21.26;37.18;95613.91;6202654;28;103064;-63
2022/12/06 00:33:45;;;;;;;7.37;6.77;;;;;;;21.27;37.67;95622.69;6201424;28;105066;-65
2022/12/06 00:36:49;;;;;;;8.70;8.00;;;;;;;21.26;37.36;95624.56;6203950;28;103191;-63
2022/12/06 00:39:52;;;;;;;8.37;7.57;;;;;;;21.20;37.58;95610.53;6188200;28;104164;-63
2022/12/06 00:42:55;;;;;;;8.13;7.43;;;;;;;21.26;37.59;95619.25;6199253;28;103104;-65
2022/12/06 00:45:59;;;;;;;8.23;7.43;;;;;;;21.26;37.43;95619.25;6203223;28;106967;-64
2022/12/06 00:49:03;;;;;;;7.80;7.10;;;;;;;21.27;37.11;95612.84;6205894;28;106087;-63
2022/12/06 00:52:08;;;;;;;7.80;7.10;;;;;;;21.27;37.73;95609.38;6206907;28;103854;-64
2022/12/06 00:55:11;;;;;;;8.40;7.70;;;;;;;21.26;37.53;95619.25;6208576;28;103432;-64
2022/12/06 00:58:14;;;;;;;7.60;7.00;;;;;;;21.29;37.17;95613.34;6189543;28;104175;-66
2022/12/06 01:01:20;;;;;;;7.77;7.13;;;;;;;21.14;37.44;95584.25;6205364;28;104895;-64
2022/12/06 01:04:23;;;;;;;8.20;7.50;;;;;;;21.26;37.26;95597.94;6188766;28;103229;-64
2022/12/06 01:07:28;;;;;;;8.60;7.87;;;;;;;21.25;37.37;95601.69;6204787;28;103088;-63
2022/12/06 01:10:31;;;;;;;10.30;9.50;;;;;;;21.25;37.43;95596.34;6186095;28;105149;-64
2022/12/06 01:13:35;;;;;;;8.17;7.50;;;;;;;21.17;37.21;95584.50;6201151;28;103211;-64
2022/12/06 01:16:38;;;;;;;9.07;8.27;;;;;;;21.26;37.19;95600.59;6199868;28;104202;-64
2022/12/06 01:19:42;;;;;;;8.07;7.37;;;;;;;21.27;37.38;95599.53;6191624;28;103647;-64
2022/12/06 01:22:46;;;;;;;8.50;7.80;;;;;;;21.27;37.17;95596.88;6187292;28;102937;-64
2022/12/06 01:25:51;;;;;;;8.40;7.70;;;;;;;21.26;36.80;95587.28;6211370;28;103191;-65
2022/12/06 01:28:54;;;;;;;8.47;7.77;;;;;;;21.26;37.39;95589.97;6210317;28;103169;-63
2022/12/06 01:31:57;;;;;;;8.33;7.63;;;;;;;21.28;37.24;95590.47;6197450;28;103344;-63
2022/12/06 01:35:00;;;;;;;7.90;7.20;;;;;;;21.26;37.15;95587.28;6193432;28;103546;-64
2022/12/06 01:38:04;;;;;;;8.03;7.33;;;;;;;21.03;37.07;95548.19;6202432;28;103433;-65
2022/12/06 01:41:08;;;;;;;8.10;7.50;;;;;;;21.24;37.10;95573.47;6187712;28;103140;-64
2022/12/06 01:44:39;;;;;;;8.33;7.53;;;;;;;21.25;36.92;95580.38;6178466;28;104994;-64
2022/12/06 01:47:44;;;;;;;8.17;7.50;;;;;;;21.27;37.09;95574.78;6205576;28;103157;-64
2022/12/06 01:50:47;;;;;;;7.60;6.90;;;;;;;21.22;36.77;95570.31;6197378;28;104607;-64
2022/12/06 01:53:53;;;;;;;7.30;6.70;;;;;;;21.19;37.05;95561.03;6185461;28;106232;-65
2022/12/06 01:56:58;;;;;;;8.57;7.80;;;;;;;21.28;36.66;95566.50;6198814;28;103202;-66
2022/12/06 02:00:01;;;;;;;7.87;7.17;;;;;;;21.24;37.22;95570.81;6196089;28;103126;-64
2022/12/06 02:03:07;;;;;;;7.70;7.00;;;;;;;21.23;37.10;95563.91;6208609;28;103216;-64
2022/12/06 02:06:11;;;;;;;7.37;6.77;;;;;;;21.25;36.98;95574.28;6200417;28;103880;-66
2022/12/06 02:09:17;;;;;;;8.13;7.43;;;;;;;21.26;37.10;95566.00;6203728;28;103442;-64
2022/12/06 02:12:20;;;;;;;6.93;6.43;;;;;;;21.27;36.98;95558.81;6200707;28;103028;-63
2022/12/06 02:15:29;;;;;;;7.50;6.93;;;;;;;21.26;36.98;95562.53;6195543;28;103167;-65
2022/12/06 02:18:38;;;;;;;7.53;6.90;;;;;;;21.26;36.80;95559.88;6189344;28;103023;-63
2022/12/06 02:21:48;;;;;;;6.87;6.37;;;;;;;21.25;36.67;95552.97;6192323;28;103285;-64
2022/12/06 02:25:17;;;;;;;7.83;7.23;;;;;;;21.26;37.10;95555.34;6187110;28;104609;-63
2022/12/06 02:29:07;;;;;;;7.17;6.57;;;;;;;21.27;36.67;95554.28;6186004;28;103183;-64
2022/12/06 02:32:18;;;;;;;7.13;6.53;;;;;;;21.27;36.47;95545.50;6194919;28;103180;-65
2022/12/06 02:35:29;;;;;;;6.90;6.30;;;;;;;21.26;36.72;95541.25;6189482;28;106207;-62
2022/12/06 02:38:39;;;;;;;7.27;6.67;;;;;;;21.24;36.65;95541.53;6191674;28;102787;-64
2022/12/06 02:41:51;;;;;;;7.17;6.57;;;;;;;21.24;36.36;95530.91;6179132;28;103253;-64
2022/12/06 02:44:55;;;;;;;6.33;5.83;;;;;;;21.25;36.56;95523.69;6203986;28;103358;-66
2022/12/06 02:48:03;;;;;;;7.00;6.40;;;;;;;21.25;36.83;95524.50;6186334;28;104199;-67
2022/12/06 02:51:10;;;;;;;6.23;5.73;;;;;;;21.20;36.95;95521.91;6178423;28;103718;-66
2022/12/06 02:54:14;;;;;;;6.50;6.00;;;;;;;21.25;36.51;95532.47;6199137;28;103225;-67
2022/12/06 02:57:19;;;;;;;7.20;6.60;;;;;;;21.12;36.95;95503.91;6206890;28;103016;-66
2022/12/06 03:00:32;;;;;;;6.70;6.10;;;;;;;21.23;36.92;95529.31;6187790;28;103060;-66
2022/12/06 03:04:10;;;;;;;7.13;6.57;;;;;;;21.25;36.58;95527.16;6177325;28;103955;-66
2022/12/06 03:07:35;;;;;;;7.00;6.40;;;;;;;21.23;36.84;95523.19;6181608;28;103056;-67
2022/12/06 03:10:45;;;;;;;6.27;5.77;;;;;;;21.22;36.52;95522.41;6184473;28;103180;-66
2022/12/06 03:13:55;;;;;;;6.67;6.10;;;;;;;21.21;36.58;95526.94;6183119;28;103186;-66
2022/12/06 03:17:09;;;;;;;6.53;6.03;;;;;;;21.27;36.37;95538.31;6193785;28;103263;-67
2022/12/06 03:20:21;;;;;;;6.50;5.90;;;;;;;21.23;36.37;95524.00;6205202;28;104216;-67
2022/12/06 03:23:30;;;;;;;6.40;5.90;;;;;;;21.25;36.74;95527.16;6198720;28;104003;-67
2022/12/06 03:26:35;;;;;;;6.00;5.53;;;;;;;21.24;36.86;95524.78;6186610;28;103369;-66
2022/12/06 03:29:41;;;;;;;5.90;5.40;;;;;;;21.25;36.29;95532.47;6199614;28;103211;-66
2022/12/06 03:32:49;;;;;;;5.70;5.30;;;;;;;21.25;36.56;95532.47;6199117;28;103100;-65
2022/12/06 03:35:55;;;;;;;6.70;6.10;;;;;;;21.14;36.76;95504.41;6192073;28;102740;-66
2022/12/06 03:39:00;;;;;;;5.53;5.10;;;;;;;21.28;36.56;95523.91;6176577;28;103068;-66
2022/12/06 03:42:04;;;;;;;5.93;5.43;;;;;;;21.22;36.64;95517.09;6186676;28;103293;-66
2022/12/06 03:45:10;;;;;;;5.90;5.40;;;;;;;21.23;36.48;95515.22;6193239;28;102966;-67
2022/12/06 03:48:18;;;;;;;5.70;5.20;;;;;;;21.25;36.63;95516.50;6202608;28;103848;-67
2022/12/06 03:51:27;;;;;;;5.80;5.37;;;;;;;21.26;36.74;95517.31;6188371;28;104221;-67
2022/12/06 03:54:30;;;;;;;5.97;5.47;;;;;;;21.04;36.54;95483.25;6196753;28;103678;-67
2022/12/06 03:57:33;;;;;;;5.50;5.10;;;;;;;21.26;36.79;95506.66;6195859;28;103088;-67
2022/12/06 04:00:36;;;;;;;6.93;5.00;;;;;;;21.26;36.64;95507.44;6179569;28;103830;-66
2022/12/06 04:03:39;;;;;;;4.90;4.50;;;;;;;21.26;36.66;95504.00;6203248;28;103030;-66
2022/12/06 04:06:44;;;;;;;5.53;5.13;;;;;;;21.26;36.24;95501.31;6207260;28;103035;-66
2022/12/06 04:09:55;;;;;;;6.03;5.53;;;;;;;21.24;36.33;95500.84;6209726;28;103364;-67
2022/12/06 04:13:01;;;;;;;5.60;5.17;;;;;;;21.26;36.74;95504.78;6196398;28;103008;-66
2022/12/06 04:18:09;;;;;;;5.07;4.67;;;;;;;21.25;36.38;95500.53;6211499;28;103190;-67
2022/12/06 04:19:28;;;;;;;5.10;4.70;;;;;;;21.16;36.55;95491.59;6201890;28;102996;-67
2022/12/06 04:25:52;;;;;;;6.57;5.97;;;;;;;21.29;36.57;95506.06;6203341;28;103012;-65
2022/12/06 04:38:58;;;;;;;11.00;10.10;;;;;;;21.30;37.10;95512.97;6213065;28;103600;-64
2022/12/06 04:45:22;;;;;;;12.90;11.83;;;;;;;21.31;37.24;95512.69;6203788;28;105145;-64
2022/12/06 04:48:25;;;;;;;11.50;10.70;;;;;;;21.30;37.17;95516.44;6182258;28;102858;-65
2022/12/06 04:51:28;;;;;;;16.80;11.50;;;;;;;21.33;36.70;95509.72;6188274;28;103214;-66
2022/12/06 04:54:33;;;;;;;13.07;12.17;;;;;;;21.29;37.25;95514.84;6202674;28;103325;-66
2022/12/06 04:57:36;;;;;;;12.90;11.90;;;;;;;21.29;37.24;95516.72;6185084;28;104147;-66
2022/12/06 05:00:42;;;;;;;13.00;11.93;;;;;;;21.26;37.60;95512.75;6186233;28;104059;-67
2022/12/06 05:03:45;;;;;;;12.20;11.40;;;;;;;21.24;37.45;95504.28;6190887;28;106614;-65
2022/12/06 05:06:49;;;;;;;13.03;11.70;;;;;;;21.30;37.29;95512.97;6202769;28;103052;-67
2022/12/06 05:09:53;;;;;;;12.67;11.27;;;;;;;21.33;38.83;95512.38;6178113;28;103328;-66
2022/12/06 05:12:56;;;;;;;13.90;12.20;;;;;;;21.39;39.41;95521.91;6196417;28;103001;-67
2022/12/06 05:16:02;;;;;;;11.83;10.53;;;;;;;21.39;39.87;95525.34;6185443;28;103390;-66
2022/12/06 05:19:05;;;;;;;11.83;10.33;;;;;;;21.41;39.67;95522.41;6186644;28;103117;-65
2022/12/06 05:22:08;;;;;;;10.70;9.63;;;;;;;21.42;40.07;95516.78;6185985;28;103287;-68
2022/12/06 05:25:13;;;;;;;11.07;9.67;;;;;;;21.42;40.07;95506.13;6195635;28;103296;-69
2022/12/06 05:28:16;;;;;;;10.03;9.13;;;;;;;21.38;39.33;95502.47;6188023;28;103181;-67
2022/12/06 05:31:19;;;;;;;10.60;9.73;;;;;;;21.35;39.50;95502.28;6187449;28;103180;-67
2022/12/06 05:34:23;;;;;;;10.17;9.17;;;;;;;21.35;39.05;95516.38;6176331;28;103570;-66
2022/12/06 05:37:26;;;;;;;9.03;8.23;;;;;;;21.35;38.96;95515.59;6187149;28;103031;-66
2022/12/06 05:40:31;;;;;;;9.30;8.60;;;;;;;21.32;39.12;95503.63;6186661;28;103344;-66
2022/12/06 05:43:34;;;;;;;8.73;7.90;;;;;;;21.33;38.72;95513.19;6182224;28;103457;-66
2022/12/06 05:46:37;;;;;;;7.93;7.13;;;;;;;21.32;38.86;95516.13;6182690;28;105193;-67
2022/12/06 05:49:40;;;;;;;8.60;7.80;;;;;;;21.33;38.45;95510.53;6186983;28;103500;-67
2022/12/06 05:52:43;;;;;;;8.07;7.47;;;;;;;21.32;38.50;95511.59;6187416;28;103227;-65
2022/12/06 05:55:49;;;;;;;8.57;7.87;;;;;;;21.24;38.17;95485.66;6176975;28;103763;-66
2022/12/06 05:58:52;;;;;;;13.70;8.53;;;;;;;21.31;38.57;95499.38;6186686;28;103358;-66
2022/12/06 06:01:55;;;;;;;8.03;7.43;;;;;;;21.35;37.88;95503.06;6186865;28;103213;-66
2022/12/06 06:04:58;;;;;;;8.17;7.47;;;;;;;21.33;38.04;95512.38;6186092;28;103194;-67
2022/12/06 06:08:01;;;;;;;7.77;7.07;;;;;;;21.34;37.94;95512.13;6174970;28;103078;-67
2022/12/06 06:11:06;;;;;;;7.10;6.50;;;;;;;21.30;37.94;95497.00;6186231;28;103256;-67
2022/12/06 06:14:09;;;;;;;8.03;7.33;;;;;;;21.23;37.94;95488.59;6186825;28;103344;-66
2022/12/06 06:17:12;;;;;;;7.20;6.70;;;;;;;21.34;37.43;95508.66;6186466;28;103842;-67
2022/12/06 06:20:15;;;;;;;6.70;6.20;;;;;;;21.33;38.12;95513.19;6175845;28;103010;-67
2022/12/06 06:23:21;;;;;;;7.40;6.70;;;;;;;21.35;37.71;95504.94;6186009;28;103542;-67
2022/12/06 06:26:25;;;;;;;7.90;7.23;;;;;;;21.36;37.47;95501.19;6186506;28;103421;-66
2022/12/06 06:29:28;;;;;;;7.50;6.20;;;;;;;21.35;37.51;95500.41;6181745;28;103134;-67
2022/12/06 06:32:31;;;;;;;7.33;6.73;;;;;;;21.36;37.67;95498.53;6180341;28;103084;-66
2022/12/06 06:35:34;;;;;;;7.30;6.60;;;;;;;21.35;37.05;95505.72;6186612;28;104192;-65
2022/12/06 06:38:37;;;;;;;7.33;6.73;;;;;;;21.37;37.53;95508.88;6186754;28;102874;-67
2022/12/06 06:41:42;;;;;;;6.60;6.00;;;;;;;21.36;37.54;95509.97;6176531;28;103559;-66
2022/12/06 06:44:45;;;;;;;7.20;6.50;;;;;;;21.38;37.29;95510.47;6186134;28;103092;-66
2022/12/06 06:47:48;;;;;;;7.00;6.40;;;;;;;21.37;37.22;95506.22;6186076;28;103227;-66
2022/12/06 06:50:52;;;;;;;6.70;6.10;;;;;;;21.36;37.22;95509.97;6186413;28;102685;-66
2022/12/06 06:53:59;;;;;;;7.00;6.37;;;;;;;21.36;37.05;95501.97;6175200;28;105109;-66
2022/12/06 06:57:04;;;;;;;7.00;6.30;;;;;;;21.36;37.42;95491.34;6186344;28;102868;-66
2022/12/06 07:00:08;;;;;;;6.77;5.97;;;;;;;21.33;37.46;95485.78;6186049;28;103407;-67
2022/12/06 07:03:14;;;;;;;6.80;6.20;;;;;;;21.35;37.25;95495.06;6185446;28;103013;-66
2022/12/06 07:06:17;;;;;;;6.20;5.60;;;;;;;21.38;36.93;95494.50;6175703;28;103187;-66
2022/12/06 07:09:20;;;;;;;6.93;6.33;;;;;;;21.39;37.04;95484.63;6185677;28;103217;-66
2022/12/06 07:12:25;;;;;;;6.53;5.83;;;;;;;21.36;37.19;95483.34;6192059;28;104045;-67
2022/12/06 07:15:28;;;;;;;7.13;6.53;;;;;;;21.41;36.98;95493.13;6185341;28;103033;-67
2022/12/06 07:18:31;;;;;;;5.77;5.37;;;;;;;21.39;37.10;95488.09;6179171;28;103146;-65
2022/12/06 07:21:34;;;;;;;9.90;9.00;;;;;;;21.42;37.46;95495.47;6200828;27;104133;-65
2022/12/06 07:24:37;;;;;;;13.10;12.00;;;;;;;21.44;37.69;95493.31;6212376;28;103456;-65
2022/12/06 07:27:46;;;;;;;14.93;13.73;;;;;;;21.43;37.99;95491.75;6204249;28;105832;-65
2022/12/06 07:30:49;;;;;;;15.27;13.87;;;;;;;21.49;37.89;95500.44;6202087;28;103132;-65
2022/12/06 07:33:53;;;;;;;17.30;15.80;;;;;;;21.51;38.06;95501.75;6189116;28;102971;-65
2022/12/06 07:36:57;;;;;;;18.37;16.77;;;;;;;21.51;38.17;95504.41;6190651;28;104381;-65
2022/12/06 07:40:00;;;;;;;18.27;16.77;;;;;;;21.55;38.18;95496.63;6179232;28;104133;-66
2022/12/06 07:46:25;;;;;;;18.73;17.13;;;;;;;21.56;38.39;95494.75;6189072;28;104161;-65
2022/12/06 07:49:29;;;;;;;19.10;17.50;;;;;;;21.55;37.67;95488.63;6196606;28;103639;-64
2022/12/06 07:52:33;;;;;;;19.60;17.90;;;;;;;21.35;38.60;95446.38;6187502;28;105366;-65
2022/12/06 07:55:36;;;;;;;20.07;18.17;;;;;;;21.57;38.21;95488.34;6206599;28;102994;-65
2022/12/06 07:58:41;;;;;;;17.90;16.40;;;;;;;21.50;38.01;95481.50;6213580;28;103169;-66
2022/12/06 08:01:44;;;;;;;19.60;17.67;;;;;;;21.48;38.04;95483.66;6208353;28;104235;-66
2022/12/06 08:04:47;;;;;;;18.20;16.70;;;;;;;21.49;38.28;95487.91;6208058;28;102968;-65
2022/12/06 08:07:50;;;;;;;19.10;17.50;;;;;;;21.44;38.12;95490.66;6213204;28;104043;-66
2022/12/06 08:10:53;;;;;;;19.33;17.37;;;;;;;21.41;37.89;95488.59;6214448;28;106832;-65
2022/12/06 08:13:58;;;;;;;18.20;16.70;;;;;;;21.40;37.98;95492.31;6203495;28;104033;-65
2022/12/06 08:17:01;;;;;;;16.57;15.20;;;;;;;21.38;38.16;95485.72;6213124;28;103246;-67
2022/12/06 08:20:06;;;;;;;17.87;16.37;;;;;;;21.38;37.97;95496.38;6212958;28;102824;-64
2022/12/06 08:23:09;;;;;;;19.13;17.43;;;;;;;21.36;38.02;95483.34;6212076;28;103220;-66
2022/12/06 08:26:15;;;;;;;19.60;18.00;;;;;;;21.36;38.10;95486.00;6203200;28;104802;-66
2022/12/06 08:29:19;;;;;;;19.20;17.53;;;;;;;21.35;38.30;95486.31;6213246;28;103167;-65
2022/12/06 08:32:23;;;;;;;20.63;18.83;;;;;;;21.28;37.73;95478.66;6212662;28;103465;-65
2022/12/06 08:35:26;;;;;;;21.00;19.20;;;;;;;21.34;37.88;95482.03;6199288;28;104109;-67
2022/12/06 08:38:29;;;;;;;20.20;18.40;;;;;;;21.36;37.73;95466.59;6194391;28;102969;-64
2022/12/06 08:44:54;;;;;;;23.13;21.30;;;;;;;21.40;38.49;95471.03;6195187;28;102953;-66
2022/12/06 08:47:57;;;;;;;23.50;21.60;;;;;;;21.42;38.21;95470.72;6194870;28;103484;-65
2022/12/06 08:51:02;;;;;;;22.13;20.30;;;;;;;21.44;38.66;95469.34;6192795;28;103374;-64
2022/12/06 08:54:06;;;;;;;24.17;21.83;;;;;;;21.45;38.44;95468.28;6210513;28;103192;-65
2022/12/06 08:57:09;;;;;;;24.30;22.10;;;;;;;21.44;38.37;95464.03;6214918;28;102871;-65
2022/12/06 09:00:16;;;;;;;24.70;22.50;;;;;;;21.45;38.81;95459.50;6225125;28;104142;-65
2022/12/06 09:03:19;;;;;;;27.57;25.27;;;;;;;21.46;38.37;95456.53;6204402;28;104252;-65
2022/12/06 09:06:22;;;;;;;27.13;24.83;;;;;;;21.44;38.34;95457.91;6188089;28;104216;-65
2022/12/06 09:09:25;;;;;;;29.30;26.80;;;;;;;21.44;38.64;95456.03;6187040;28;103551;-65
2022/12/06 09:12:28;;;;;;;32.53;29.73;;;;;;;21.36;38.84;95448.75;6200792;28;103900;-65
2022/12/06 09:15:33;;;;;;;33.17;30.17;;;;;;;21.41;38.67;95443.31;6193199;28;103266;-65
2022/12/06 09:18:36;;;;;;;32.90;30.07;;;;;;;21.36;38.87;95427.44;6187195;28;104118;-65
2022/12/06 09:21:42;;;;;;;32.93;30.13;;;;;;;21.43;38.51;95427.06;6194011;28;103113;-65
2022/12/06 09:24:45;;;;;;;31.60;29.10;;;;;;;21.47;38.29;95428.84;6184521;28;103243;-65
2022/12/06 09:27:49;;;;;;;31.97;29.27;;;;;;;21.46;38.64;95421.13;6199462;28;103265;-66
2022/12/06 09:30:53;;;;;;;31.97;29.10;;;;;;;21.50;38.79;95408.81;6199576;28;103358;-65
2022/12/06 09:33:56;;;;;;;30.90;28.17;;;;;;;21.58;38.37;95412.69;6200076;28;102991;-65
2022/12/06 09:37:05;;;;;;;31.87;29.27;;;;;;;21.63;38.24;95396.63;6201194;28;103298;-64
2022/12/06 09:40:16;;;;;;;33.13;30.20;;;;;;;21.68;38.54;95391.22;6205221;28;103188;-65
2022/12/06 09:43:34;;;;;;;32.17;29.57;;;;;;;21.74;38.37;95382.03;6187399;28;103507;-65
2022/12/06 09:46:51;;;;;;;32.93;30.03;;;;;;;21.79;38.54;95366.75;6189250;28;104917;-66
2022/12/06 09:50:07;;;;;;;32.67;29.90;;;;;;;21.83;38.10;95366.97;6207100;28;102988;-66
2022/12/06 09:53:22;;;;;;;32.37;29.60;;;;;;;21.87;38.26;95373.31;6204361;28;102905;-65
2022/12/06 09:56:30;;;;;;;30.90;28.17;;;;;;;21.90;38.17;95366.59;6197044;28;103176;-66
2022/12/06 09:59:47;;;;;;;30.27;27.80;;;;;;;21.83;38.38;95372.28;6184195;28;104016;-65
2022/12/06 10:03:17;;;;;;;31.73;29.03;;;;;;;21.75;38.53;95376.41;6200359;28;103019;-64
2022/12/06 10:06:23;;;;;;;30.07;27.37;;;;;;;21.72;38.24;95366.34;6189983;28;102987;-65
2022/12/06 10:09:36;;;;;;;30.80;28.30;;;;;;;21.65;38.47;95354.50;6176603;28;102961;-65
2022/12/06 10:12:55;;;;;;;30.70;28.07;;;;;;;21.57;38.15;95353.31;6210944;28;102859;-66
2022/12/06 10:16:08;;;;;;;30.83;28.23;;;;;;;21.55;38.50;95344.84;6202745;28;104066;-65
2022/12/06 10:19:25;;;;;;;32.50;29.60;;;;;;;21.57;38.43;95345.34;6189120;28;103264;-65
2022/12/06 10:22:42;;;;;;;34.10;31.20;;;;;;;21.55;39.22;95344.06;6176769;28;104373;-66
2022/12/06 10:25:54;;;;;;;35.80;32.80;;;;;;;21.57;38.81;95336.56;6185848;28;103948;-66
2022/12/06 10:29:09;;;;;;;39.57;36.27;;;;;;;21.54;39.02;95316.63;6204648;28;103429;-66
2022/12/06 10:32:18;;;;;;;42.63;39.03;;;;;;;21.52;39.33;95324.91;6175445;28;104034;-66
2022/12/06 10:35:40;;;;;;;41.83;38.43;;;;;;;21.54;39.49;95313.19;6204236;28;103066;-65
2022/12/06 10:38:49;;;;;;;42.50;38.93;;;;;;;21.54;39.57;95323.84;6209730;28;102845;-65
2022/12/06 10:42:02;;;;;;;43.67;39.97;;;;;;;21.56;38.86;95313.69;6208411;28;103470;-65
2022/12/06 10:48:41;;;;;;;52.13;47.83;;;;;;;21.58;38.90;95314.16;6206051;28;102771;-66
2022/12/06 10:51:53;;;;;;;52.13;48.00;;;;;;;21.59;38.59;95313.06;6203748;28;103230;-65
2022/12/06 10:55:07;;;;;;;56.70;52.10;;;;;;;21.62;38.87;95317.81;6186469;28;103140;-64
2022/12/06 10:58:17;;;;;;;59.80;54.90;;;;;;;21.62;38.72;95315.94;6188660;28;103251;-65
2022/12/06 11:01:25;;;;;;;60.07;55.47;;;;;;;21.63;39.11;95316.72;6195923;28;104129;-65
2022/12/06 11:04:33;;;;;;;61.17;56.60;;;;;;;21.64;39.03;95310.31;6195488;28;104593;-65
2022/12/06 11:07:42;;;;;;;61.20;56.50;;;;;;;21.61;39.32;95295.72;6176372;28;104326;-64
2022/12/06 11:10:47;;;;;;;61.53;56.63;;;;;;;21.59;39.09;95289.91;6209819;28;102964;-64
2022/12/06 11:13:54;;;;;;;60.70;56.00;;;;;;;21.60;38.88;95288.81;6206371;28;103091;-65
2022/12/06 11:17:03;;;;;;;58.93;54.23;;;;;;;21.58;39.01;95274.22;6195406;28;104432;-64
2022/12/06 11:20:18;;;;;;;57.27;52.83;;;;;;;21.60;38.95;95277.38;6188741;28;103182;-64
2022/12/06 11:23:33;;;;;;;57.13;52.87;;;;;;;21.58;39.36;95267.03;6214053;28;103091;-64
2022/12/06 11:26:43;;;;;;;54.60;50.47;;;;;;;21.57;39.08;95262.78;6211457;28;103124;-65
2022/12/06 11:29:48;;;;;;;52.90;48.90;;;;;;;21.57;38.75;95256.66;6202991;28;103618;-69
2022/12/06 11:32:52;;;;;;;50.77;46.70;;;;;;;21.58;39.03;95252.91;6206987;28;102914;-65
2022/12/06 11:35:56;;;;;;;49.43;45.60;;;;;;;21.60;38.89;95251.53;6209302;28;103044;-66
2022/12/06 11:39:00;;;;;;;50.80;46.83;;;;;;;21.61;39.26;95254.97;6208738;28;103489;-66
2022/12/06 11:42:05;;;;;;;49.27;45.20;;;;;;;21.62;39.01;95249.34;6199282;28;103215;-66
2022/12/06 11:45:17;;;;;;;48.47;44.77;;;;;;;21.61;39.15;95257.66;6189165;28;104168;-67
2022/12/06 11:48:22;;;;;;;45.47;42.00;;;;;;;21.62;38.93;95248.56;6189205;28;103197;-65
2022/12/06 11:51:25;;;;;;;45.77;42.17;;;;;;;21.61;38.97;95245.13;6189915;28;103245;-66
2022/12/06 11:54:34;;;;;;;45.93;42.33;;;;;;;21.62;39.59;95251.22;6196365;28;103518;-66
2022/12/06 11:57:43;;;;;;;43.40;40.10;;;;;;;21.61;39.61;95250.44;6189025;28;103094;-66
2022/12/06 12:00:57;;;;;;;42.23;38.97;;;;;;;21.62;39.13;95240.59;6200516;28;103019;-67
2022/12/06 12:04:20;;;;;;;43.30;39.93;;;;;;;21.64;39.09;95249.84;6209132;28;103153;-67
2022/12/06 12:07:25;;;;;;;40.67;37.37;;;;;;;21.65;39.30;95237.31;6206622;28;105871;-67
2022/12/06 12:10:34;;;;;;;41.07;37.90;;;;;;;21.64;39.17;95230.41;6206961;28;103023;-67
2022/12/06 12:13:47;;;;;;;40.77;37.67;;;;;;;21.65;39.37;95234.66;6195366;28;103454;-67
2022/12/06 12:16:56;;;;;;;38.90;35.93;;;;;;;21.64;39.31;95225.09;6181775;28;105435;-66
2022/12/06 12:20:02;;;;;;;38.77;35.50;;;;;;;21.65;39.22;95221.34;6202145;28;103234;-65
2022/12/06 12:23:07;;;;;;;36.60;33.70;;;;;;;21.65;38.98;95227.44;6188020;28;107593;-66
2022/12/06 12:26:14;;;;;;;37.73;34.73;;;;;;;21.65;39.14;95221.34;6194102;28;103651;-66
2022/12/06 12:29:20;;;;;;;35.87;32.97;;;;;;;21.65;39.11;95221.34;6177199;28;103036;-66
2022/12/06 12:32:24;;;;;;;36.07;33.13;;;;;;;21.66;39.57;95204.28;6187454;28;103189;-66
2022/12/06 12:35:28;;;;;;;33.93;31.27;;;;;;;21.66;38.98;95196.28;6187832;28;103133;-66
2022/12/06 12:38:37;;;;;;;33.70;30.90;;;;;;;21.68;39.38;95192.25;6194478;28;104034;-65
2022/12/06 12:41:44;;;;;;;33.00;30.50;;;;;;;21.68;39.46;95202.13;6234584;28;103396;-65
2022/12/06 12:44:47;;;;;;;31.10;28.70;;;;;;;21.67;39.59;95197.84;6236780;28;103117;-66
2022/12/06 12:47:58;;;;;;;32.17;29.73;;;;;;;21.65;39.63;95190.16;6225031;28;104036;-65
2022/12/06 12:51:03;;;;;;;33.13;30.47;;;;;;;21.67;39.47;95189.88;6202246;28;103873;-66
2022/12/06 12:54:19;;;;;;;31.67;29.27;;;;;;;21.69;39.53;95193.84;6195207;28;103206;-66
2022/12/06 12:57:23;;;;;;;31.43;28.90;;;;;;;21.68;39.33;95194.13;6211898;28;103227;-66
2022/12/06 13:00:31;;;;;;;29.50;27.20;;;;;;;21.68;39.51;95194.13;6188931;28;102865;-67
2022/12/06 13:03:35;;;;;;;29.40;27.10;;;;;;;21.69;39.54;95195.72;6193695;28;103849;-67
2022/12/06 13:06:58;;;;;;;29.67;27.30;;;;;;;21.67;39.78;95192.53;6200096;28;104123;-66
2022/12/06 13:10:05;;;;;;;28.53;26.23;;;;;;;21.67;39.34;95189.88;6187125;28;103557;-65
2022/12/06 13:13:17;;;;;;;27.57;25.57;;;;;;;21.65;39.31;95187.50;6206532;28;102996;-65
2022/12/06 13:16:29;;;;;;;27.30;25.10;;;;;;;21.67;39.70;95192.53;6209863;28;103246;-65
2022/12/06 13:19:36;;;;;;;26.63;24.60;;;;;;;21.65;39.56;95186.72;6212614;28;103402;-66
2022/12/06 13:22:44;;;;;;;28.80;26.40;;;;;;;21.66;39.70;95186.41;6210941;28;103294;-66
2022/12/06 13:25:50;;;;;;;26.23;24.13;;;;;;;21.69;39.44;95187.72;6192198;28;103994;-66
2022/12/06 13:28:59;;;;;;;26.13;23.93;;;;;;;21.68;39.83;95186.16;6186393;28;106452;-66
2022/12/06 13:32:07;;;;;;;25.47;23.40;;;;;;;21.65;39.84;95181.38;6205969;28;104185;-65
2022/12/06 13:35:22;;;;;;;26.20;24.00;;;;;;;21.64;39.83;95182.47;6211401;28;102941;-65
2022/12/06 13:38:30;;;;;;;24.43;22.47;;;;;;;21.64;39.61;95187.81;6182930;28;103344;-63
2022/12/06 13:45:44;;;;;;;21.20;19.60;;;;;;;21.64;39.44;95174.50;6209752;28;103937;-63
2022/12/06 13:48:50;;;;;;;19.90;18.30;;;;;;;21.62;39.27;95179.34;6176353;28;103342;-62
2022/12/06 13:51:53;;;;;;;20.77;19.07;;;;;;;21.64;39.24;95174.50;6186829;28;103185;-63
2022/12/06 13:54:56;;;;;;;18.40;17.00;;;;;;;21.63;39.30;95176.38;6196344;28;103912;-63
2022/12/06 13:58:40;;;;;;;18.87;17.27;;;;;;;21.61;39.16;95167.09;6210002;28;103152;-63
2022/12/06 14:01:46;;;;;;;18.87;17.27;;;;;;;21.60;39.20;95166.31;6183086;28;104196;-63
2022/12/06 14:04:49;;;;;;;18.90;17.30;;;;;;;21.60;39.22;95160.19;6185998;28;103092;-64
2022/12/06 14:07:57;;;;;;;16.37;15.17;;;;;;;21.58;39.05;95154.41;6202287;28;103126;-63
2022/12/06 14:11:23;;;;;;;16.80;15.27;;;;;;;21.58;39.07;95152.50;6176704;28;103006;-64
2022/12/06 14:14:26;;;;;;;16.50;15.10;;;;;;;21.58;39.01;95151.72;6183167;28;103239;-63
2022/12/06 14:17:37;;;;;;;15.43;14.13;;;;;;;21.57;39.05;95150.16;6206226;28;103039;-63
2022/12/06 14:21:01;;;;;;;14.40;13.30;;;;;;;21.57;39.03;95150.16;6185783;28;102864;-63
2022/12/06 14:24:05;;;;;;;15.37;14.17;;;;;;;21.57;39.00;95161.59;6181704;28;103479;-62
2022/12/06 14:27:13;;;;;;;14.83;13.70;;;;;;;21.58;39.07;95162.38;6194923;28;103153;-63
2022/12/06 14:30:20;;;;;;;14.00;12.90;;;;;;;21.57;38.95;95150.94;6201872;28;103862;-63
2022/12/06 14:33:29;;;;;;;14.50;13.40;;;;;;;21.56;38.94;95149.38;6203849;28;103485;-63
2022/12/06 14:36:34;;;;;;;14.70;13.30;;;;;;;21.61;38.85;95140.47;6188719;28;104032;-63
2022/12/06 14:39:38;;;;;;;13.27;12.07;;;;;;;21.62;38.54;95148.16;6210924;28;103343;-62
2022/12/06 14:43:02;;;;;;;12.80;11.60;;;;;;;21.61;38.87;95149.25;6185868;28;104009;-64
2022/12/06 14:46:07;;;;;;;12.37;11.30;;;;;;;21.61;38.11;95156.44;6181460;28;104251;-63
2022/12/06 14:52:54;;;;;;;11.27;10.37;;;;;;;21.62;38.39;95155.38;6186577;28;103162;-64
2022/12/06 14:55:59;;;;;;;11.07;10.17;;;;;;;21.63;37.54;95160.38;6194082;28;103152;-63